Time;durP1;ratioP1;P1;durP2;ratioP2;P2;SDS_P1;SDS_P2;PMS_P1;PMS_P2;Temp;Humidity;BMP_temperature;BMP_pressure;BME280_temperature;BME280_humidity;BME280_pressure;Samples;Min_cycle;Max_cycle;Signal;HPM_P1;HPM_P2
2023/03/30 00:00:17;;;;;;;11.63;3.70;;;;;;;13.25;72.84;100462.97;5263763;28;20460;-73
2023/03/30 00:02:52;;;;;;;7.50;2.80;;;;;;;13.31;72.11;100447.09;5263549;28;20105;-73
2023/03/30 00:05:24;;;;;;;7.55;2.80;;;;;;;13.25;72.66;100450.75;5263093;28;20029;-73
2023/03/30 00:07:56;;;;;;;6.28;2.90;;;;;;;13.19;72.90;100447.47;5262342;28;20037;-73
2023/03/30 00:10:28;;;;;;;11.63;2.90;;;;;;;13.13;73.06;100446.72;5262994;28;20179;-73
2023/03/30 00:12:59;;;;;;;7.97;2.40;;;;;;;13.04;73.19;100433.91;5263344;28;20178;-73
2023/03/30 00:15:31;;;;;;;10.90;2.83;;;;;;;12.93;73.76;100422.91;5263157;28;20048;-73
2023/03/30 00:18:02;;;;;;;6.77;2.70;;;;;;;12.75;74.47;100421.63;5263421;28;20167;-73
2023/03/30 00:20:36;;;;;;;8.20;2.80;;;;;;;12.68;74.94;100427.94;5262911;28;20084;-73
2023/03/30 00:23:07;;;;;;;9.02;2.88;;;;;;;12.66;75.24;100421.91;5263003;28;20041;-73
2023/03/30 00:25:41;;;;;;;5.03;2.20;;;;;;;12.74;74.69;100412.09;5263241;28;20041;-73
2023/03/30 00:28:13;;;;;;;6.40;2.22;;;;;;;12.76;74.54;100421.59;5262635;28;20037;-73
2023/03/30 00:30:46;;;;;;;11.90;2.53;;;;;;;12.75;74.33;100422.50;5262725;28;20032;-73
2023/03/30 00:33:19;;;;;;;7.63;2.65;;;;;;;12.73;73.96;100426.91;5262924;28;20032;-73
2023/03/30 00:35:56;;;;;;;3.85;2.28;;;;;;;12.74;73.49;100418.16;5263131;28;20053;-73
2023/03/30 00:38:28;;;;;;;7.03;2.65;;;;;;;12.65;74.37;100410.56;5262503;28;20029;-72
2023/03/30 00:41:00;;;;;;;9.82;2.58;;;;;;;12.60;74.43;100396.78;5262409;28;20449;-72
2023/03/30 00:43:32;;;;;;;6.68;2.38;;;;;;;12.53;74.73;100398.69;5262407;28;20038;-73
2023/03/30 00:46:03;;;;;;;6.07;2.50;;;;;;;12.47;75.24;100403.25;5262739;28;20033;-72
2023/03/30 00:48:39;;;;;;;4.47;2.10;;;;;;;12.48;75.23;100394.50;5262730;28;20039;-72
2023/03/30 00:51:11;;;;;;;4.70;2.15;;;;;;;12.46;75.33;100370.16;5262786;28;20054;-72
2023/03/30 00:53:49;;;;;;;5.57;2.90;;;;;;;12.44;75.64;100385.03;5262437;28;20120;-72
2023/03/30 00:56:27;;;;;;;8.52;2.67;;;;;;;12.52;75.32;100372.59;5262425;28;20036;-73
2023/03/30 00:59:01;;;;;;;12.02;2.72;;;;;;;12.51;75.34;100360.41;5262893;28;20029;-72
2023/03/30 01:01:37;;;;;;;9.35;2.20;;;;;;;12.46;75.62;100362.31;5262755;28;20052;-72
2023/03/30 01:04:08;;;;;;;4.90;2.47;;;;;;;12.41;75.89;100365.03;5262370;28;20454;-72
2023/03/30 01:06:42;;;;;;;8.27;2.47;;;;;;;12.37;75.89;100364.28;5262657;28;20119;-72
2023/03/30 01:09:14;;;;;;;8.65;3.78;;;;;;;12.31;76.62;100366.19;5262216;28;20063;-72
2023/03/30 01:11:45;;;;;;;7.72;2.65;;;;;;;12.29;76.77;100362.78;5262152;28;20087;-72
2023/03/30 01:14:17;;;;;;;6.73;2.50;;;;;;;12.18;77.20;100352.59;5262289;28;20032;-72
2023/03/30 01:17:08;;;;;;;13.40;2.63;;;;;;;12.12;78.08;100363.19;5244398;28;20053;-72
2023/03/30 01:20:07;;;;;;;6.47;2.45;;;;;;;12.25;77.51;100368.97;5262438;28;20025;-72
2023/03/30 01:23:17;;;;;;;6.60;2.20;;;;;;;12.27;77.45;100370.66;5262601;28;20025;-72
2023/03/30 01:26:13;;;;;;;18.90;9.98;;;;;;;12.32;77.32;100370.53;5261985;28;20017;-72
2023/03/30 01:28:56;;;;;;;6.80;3.17;;;;;;;12.32;77.48;100368.78;5262038;28;20036;-71
2023/03/30 01:32:14;;;;;;;10.20;2.67;;;;;;;12.32;77.73;100371.38;5262556;28;20380;-72
2023/03/30 01:35:09;;;;;;;8.30;2.53;;;;;;;12.42;77.28;100365.91;5262172;28;20025;-72
2023/03/30 01:37:51;;;;;;;7.60;2.35;;;;;;;12.65;76.18;100363.50;5262481;28;20029;-72
2023/03/30 01:40:30;;;;;;;8.57;2.30;;;;;;;13.00;74.47;100369.47;5261990;28;20112;-74
2023/03/30 01:43:15;;;;;;;7.03;2.33;;;;;;;13.10;73.66;100355.22;5262112;28;20325;-72
2023/03/30 01:46:03;;;;;;;10.65;2.30;;;;;;;13.12;73.16;100356.03;5262020;28;20025;-72
2023/03/30 01:48:53;;;;;;;8.30;2.75;;;;;;;13.12;73.42;100347.31;5244246;28;20033;-72
2023/03/30 01:51:30;;;;;;;7.13;2.30;;;;;;;13.12;72.83;100342.97;5261993;28;20102;-72
2023/03/30 01:54:09;;;;;;;6.28;2.15;;;;;;;13.06;73.55;100345.75;5261496;28;20033;-72
2023/03/30 01:56:47;;;;;;;4.90;2.47;;;;;;;12.95;74.12;100358.31;5261973;28;20052;-73
2023/03/30 01:59:25;;;;;;;5.60;2.10;;;;;;;12.94;74.13;100374.91;5262185;28;20130;-73
2023/03/30 02:02:02;;;;;;;9.15;2.85;;;;;;;12.90;74.26;100368.06;5262430;28;20036;-72
2023/03/30 02:04:37;;;;;;;9.05;2.65;;;;;;;13.04;73.74;100365.88;5262175;28;20040;-72
2023/03/30 02:07:15;;;;;;;9.85;2.92;;;;;;;12.96;73.95;100357.41;5243840;28;20119;-72
2023/03/30 02:09:49;;;;;;;4.43;2.22;;;;;;;12.86;74.55;100371.66;5261625;28;20029;-79
2023/03/30 02:12:22;;;;;;;6.43;2.35;;;;;;;12.78;74.89;100369.25;5243719;28;20586;-73
2023/03/30 02:14:57;;;;;;;6.63;2.40;;;;;;;12.79;74.88;100364.88;5261302;28;20060;-72
2023/03/30 02:17:30;;;;;;;5.97;2.67;;;;;;;12.82;74.75;100367.41;5263460;28;20143;-72
2023/03/30 02:20:03;;;;;;;7.95;2.90;;;;;;;12.88;74.69;100359.38;5265280;28;20127;-72
2023/03/30 02:22:34;;;;;;;5.75;2.42;;;;;;;12.82;74.95;100349.13;5265277;28;20089;-72
2023/03/30 02:25:06;;;;;;;7.57;3.30;;;;;;;12.81;75.10;100355.22;5265695;28;20033;-72
2023/03/30 02:27:40;;;;;;;4.32;1.90;;;;;;;12.83;74.91;100350.81;5265221;28;20033;-72
2023/03/30 02:30:12;;;;;;;9.32;2.35;;;;;;;12.77;75.29;100349.25;5265333;28;20049;-72
2023/03/30 02:33:03;;;;;;;10.25;2.50;;;;;;;12.79;75.26;100359.66;5265265;28;20032;-72
2023/03/30 02:35:50;;;;;;;9.32;2.80;;;;;;;12.85;74.90;100354.25;5265305;28;20033;-72
2023/03/30 02:38:35;;;;;;;6.40;2.78;;;;;;;12.85;75.05;100349.03;5265143;28;20372;-73
2023/03/30 02:41:21;;;;;;;4.50;2.20;;;;;;;12.89;74.73;100350.63;5265234;28;20033;-72
2023/03/30 02:44:21;;;;;;;9.27;2.40;;;;;;;12.95;74.41;100353.91;5264838;28;20067;-72
2023/03/30 02:47:03;;;;;;;7.55;2.22;;;;;;;12.95;74.52;100360.91;5264964;28;20333;-72
2023/03/30 02:49:56;;;;;;;5.57;2.28;;;;;;;13.01;74.20;100350.28;5265091;28;20039;-73
2023/03/30 02:52:55;;;;;;;7.70;2.88;;;;;;;13.02;74.38;100362.44;5265910;28;20021;-72
2023/03/30 02:55:33;;;;;;;9.07;2.30;;;;;;;13.17;73.35;100352.41;5265536;28;20033;-73
2023/03/30 02:58:27;;;;;;;5.45;2.25;;;;;;;13.21;73.05;100348.81;5265416;28;20037;-71
2023/03/30 03:01:09;;;;;;;3.70;2.13;;;;;;;13.21;73.31;100340.97;5265026;28;20021;-72
2023/03/30 03:03:45;;;;;;;7.15;2.20;;;;;;;13.20;73.16;100334.00;5265366;28;20037;-71
2023/03/30 03:06:19;;;;;;;7.38;2.45;;;;;;;13.21;73.18;100330.50;5265586;28;20116;-71
2023/03/30 03:08:53;;;;;;;5.57;2.30;;;;;;;13.30;72.71;100327.59;5265225;28;20531;-72
2023/03/30 03:11:25;;;;;;;5.53;2.60;;;;;;;13.29;72.78;100334.56;5264698;28;20028;-71
2023/03/30 03:13:58;;;;;;;6.13;2.80;;;;;;;13.30;72.60;100331.06;5265240;28;20033;-71
2023/03/30 03:16:29;;;;;;;6.95;2.40;;;;;;;13.29;72.92;100338.97;5265553;28;20110;-71
2023/03/30 03:19:01;;;;;;;6.83;2.57;;;;;;;13.27;72.97;100328.53;5265262;28;20041;-72
2023/03/30 03:21:32;;;;;;;5.40;1.90;;;;;;;13.28;72.83;100335.50;5264706;28;20035;-73
2023/03/30 03:24:05;;;;;;;6.20;2.30;;;;;;;13.31;72.61;100329.28;5264890;28;20029;-72
2023/03/30 03:26:36;;;;;;;4.93;2.05;;;;;;;13.28;72.42;100329.38;5265758;28;20029;-71
2023/03/30 03:29:08;;;;;;;5.17;1.93;;;;;;;13.32;72.17;100329.28;5264403;28;20461;-71
2023/03/30 03:31:40;;;;;;;4.97;1.80;;;;;;;13.31;72.10;100334.53;5264986;28;20236;-71
2023/03/30 03:34:11;;;;;;;9.33;2.43;;;;;;;13.35;71.77;100330.06;5264300;28;20067;-71
2023/03/30 03:36:43;;;;;;;5.70;2.33;;;;;;;13.33;71.66;100335.38;5264541;28;20025;-71
2023/03/30 03:39:14;;;;;;;9.10;1.97;;;;;;;13.30;72.12;100330.22;5264307;28;20028;-72
2023/03/30 03:41:45;;;;;;;5.30;2.20;;;;;;;13.34;71.58;100318.75;5263599;28;20039;-72
2023/03/30 03:44:17;;;;;;;4.83;2.07;;;;;;;13.39;71.00;100322.06;5262425;28;20029;-72
2023/03/30 03:46:48;;;;;;;6.50;2.43;;;;;;;13.43;70.65;100322.88;5263336;28;20029;-72
2023/03/30 03:49:20;;;;;;;8.87;2.20;;;;;;;13.43;70.38;100320.25;5263638;28;20041;-72
2023/03/30 03:51:52;;;;;;;6.07;2.47;;;;;;;13.35;70.86;100325.72;5263626;28;20037;-72
2023/03/30 03:54:24;;;;;;;9.57;2.20;;;;;;;13.35;70.63;100317.00;5263420;28;20116;-73
2023/03/30 03:56:55;;;;;;;10.10;2.25;;;;;;;13.31;70.66;100319.69;5263544;28;20480;-71
2023/03/30 03:59:27;;;;;;;7.10;2.00;;;;;;;13.32;70.42;100308.34;5263398;28;20083;-71
2023/03/30 04:01:58;;;;;;;6.27;1.60;;;;;;;13.41;69.91;100314.19;5263414;28;20389;-72
2023/03/30 04:04:30;;;;;;;5.30;1.90;;;;;;;13.41;69.68;100328.16;5263214;28;20033;-71
2023/03/30 04:07:01;;;;;;;7.07;2.30;;;;;;;13.39;69.89;100318.63;5261831;28;20501;-71
2023/03/30 04:09:33;;;;;;;7.43;2.07;;;;;;;13.38;69.88;100306.41;5263857;28;20029;-72
2023/03/30 04:12:04;;;;;;;7.13;2.17;;;;;;;13.30;70.46;100309.28;5262832;28;20033;-71
2023/03/30 04:14:36;;;;;;;4.77;2.13;;;;;;;13.21;70.78;100313.03;5262933;28;20029;-71
2023/03/30 04:17:07;;;;;;;5.37;2.77;;;;;;;13.17;71.01;100311.41;5263398;28;20099;-73
2023/03/30 04:19:40;;;;;;;6.57;1.90;;;;;;;13.13;71.33;100305.41;5262985;28;20060;-72
2023/03/30 04:22:12;;;;;;;7.05;2.00;;;;;;;13.03;71.76;100292.66;5263162;28;20063;-72
2023/03/30 04:24:44;;;;;;;4.97;2.00;;;;;;;12.97;71.98;100288.47;5229047;28;20437;-72
2023/03/30 04:27:16;;;;;;;9.52;2.95;;;;;;;12.96;72.37;100294.63;5262817;28;20037;-71
2023/03/30 04:29:47;;;;;;;7.13;2.27;;;;;;;12.92;72.86;100298.22;5262802;28;20086;-72
2023/03/30 04:32:19;;;;;;;9.07;2.40;;;;;;;12.83;73.24;100288.91;5262636;28;20079;-71
2023/03/30 04:34:53;;;;;;;7.68;2.60;;;;;;;12.76;73.75;100289.97;5262845;28;20032;-71
2023/03/30 04:37:29;;;;;;;6.82;2.28;;;;;;;12.69;73.88;100285.84;5262602;28;20472;-71
2023/03/30 04:40:06;;;;;;;7.55;2.47;;;;;;;12.68;73.76;100287.59;5262096;28;20040;-72
2023/03/30 04:42:38;;;;;;;5.32;2.25;;;;;;;12.61;74.34;100282.59;5262477;28;20024;-71
2023/03/30 04:45:09;;;;;;;6.22;2.25;;;;;;;12.58;74.49;100273.06;5262367;28;20033;-71
2023/03/30 04:47:41;;;;;;;6.40;2.40;;;;;;;12.68;74.34;100274.50;5262448;28;20032;-71
2023/03/30 04:50:13;;;;;;;6.43;2.33;;;;;;;12.61;74.65;100275.59;5262012;28;20070;-71
2023/03/30 04:52:44;;;;;;;4.80;2.13;;;;;;;12.68;74.46;100279.75;5262237;28;20032;-72
2023/03/30 04:55:15;;;;;;;9.23;2.67;;;;;;;12.62;74.60;100277.28;5262990;28;20040;-72
2023/03/30 04:57:47;;;;;;;3.83;1.70;;;;;;;12.53;75.47;100281.06;5262621;28;20033;-72
2023/03/30 05:00:19;;;;;;;6.80;3.00;;;;;;;12.47;75.73;100285.59;5262502;28;20039;-71
2023/03/30 05:02:50;;;;;;;6.40;2.13;;;;;;;12.44;76.24;100285.69;5262414;28;20028;-71
2023/03/30 05:05:21;;;;;;;7.73;2.27;;;;;;;12.41;76.46;100284.00;5262452;28;20029;-71
2023/03/30 05:07:53;;;;;;;5.70;2.43;;;;;;;12.37;77.13;100285.84;5262441;28;20028;-74
2023/03/30 05:10:25;;;;;;;5.73;2.43;;;;;;;12.29;78.99;100307.91;5262357;28;20029;-73
2023/03/30 05:12:56;;;;;;;11.30;2.53;;;;;;;12.05;83.64;100323.31;5262139;28;20441;-73
2023/03/30 05:15:27;;;;;;;7.97;2.63;;;;;;;11.68;87.83;100324.22;5261221;28;20416;-73
2023/03/30 05:17:59;;;;;;;8.37;3.07;;;;;;;11.49;91.26;100326.41;5262326;28;20059;-73
2023/03/30 05:20:31;;;;;;;8.43;2.47;;;;;;;11.30;94.71;100321.66;5262371;28;20040;-73
2023/03/30 05:23:02;;;;;;;8.20;3.97;;;;;;;11.22;97.49;100330.53;5244733;28;20025;-72
2023/03/30 05:25:33;;;;;;;11.23;3.07;;;;;;;11.14;99.65;100330.72;5262091;28;20375;-73
2023/03/30 05:28:05;;;;;;;6.13;3.00;;;;;;;10.99;100.00;100337.13;5262659;28;20052;-73
2023/03/30 05:30:36;;;;;;;8.70;3.43;;;;;;;10.90;100.00;100335.56;5262382;28;20078;-73
2023/03/30 05:33:08;;;;;;;8.97;3.37;;;;;;;10.69;100.00;100342.09;5262341;28;20172;-73
2023/03/30 05:35:40;;;;;;;13.57;4.50;;;;;;;10.54;100.00;100340.63;5262859;28;20119;-73
2023/03/30 05:38:11;;;;;;;6.10;3.67;;;;;;;10.44;100.00;100349.53;5262268;28;20120;-72
2023/03/30 05:40:43;;;;;;;7.47;3.63;;;;;;;10.38;100.00;100360.06;5262066;28;20033;-73
2023/03/30 05:43:15;;;;;;;7.50;3.97;;;;;;;10.38;100.00;100360.06;5262444;28;20488;-73
2023/03/30 05:45:47;;;;;;;10.07;4.10;;;;;;;10.36;100.00;100354.88;5261766;28;20021;-73
2023/03/30 05:48:18;;;;;;;9.70;4.33;;;;;;;10.29;100.00;100350.66;5262272;28;20103;-74
2023/03/30 05:50:50;;;;;;;9.47;4.30;;;;;;;10.25;100.00;100348.97;5262131;28;20029;-74
2023/03/30 05:53:21;;;;;;;9.83;3.87;;;;;;;10.23;100.00;100346.41;5265826;28;20136;-74
2023/03/30 05:55:53;;;;;;;9.80;3.13;;;;;;;10.21;100.00;100342.97;5266190;28;20033;-74
2023/03/30 05:58:24;;;;;;;8.17;4.33;;;;;;;10.14;100.00;100348.31;5264177;28;20389;-73
2023/03/30 06:00:57;;;;;;;12.10;4.43;;;;;;;10.13;100.00;100354.44;5265896;28;20472;-75
2023/03/30 06:03:28;;;;;;;10.52;4.43;;;;;;;10.16;100.00;100363.03;5248155;28;20029;-72
2023/03/30 06:06:00;;;;;;;11.27;4.13;;;;;;;10.10;100.00;100368.34;5264390;28;20488;-73
2023/03/30 06:08:31;;;;;;;9.13;4.97;;;;;;;10.09;100.00;100369.22;5265619;28;20388;-73
2023/03/30 06:11:03;;;;;;;17.43;5.07;;;;;;;10.08;100.00;100364.94;5265658;28;20484;-73
2023/03/30 06:13:35;;;;;;;11.17;5.63;;;;;;;10.11;100.00;100366.59;5265346;28;20287;-72
2023/03/30 06:16:07;;;;;;;12.80;4.10;;;;;;;10.13;100.00;100370.06;5266025;28;20135;-72
2023/03/30 06:18:38;;;;;;;11.20;4.60;;;;;;;10.15;100.00;100369.13;5265480;28;20083;-73
2023/03/30 06:21:10;;;;;;;12.63;3.93;;;;;;;10.20;100.00;100374.25;5265487;28;20033;-71
2023/03/30 06:23:41;;;;;;;11.35;4.15;;;;;;;10.17;100.00;100380.38;5265270;28;20060;-71
2023/03/30 06:26:13;;;;;;;13.07;4.10;;;;;;;10.20;100.00;100382.94;5265153;28;20029;-72
2023/03/30 06:28:44;;;;;;;9.90;4.10;;;;;;;10.21;100.00;100378.59;5265160;28;20067;-71
2023/03/30 06:31:16;;;;;;;9.37;4.53;;;;;;;10.27;100.00;100382.81;5265182;28;20086;-72
2023/03/30 06:33:49;;;;;;;15.50;5.27;;;;;;;10.16;100.00;100378.69;5265194;28;20033;-73
2023/03/30 06:36:20;;;;;;;13.35;4.30;;;;;;;10.16;100.00;100386.50;5264936;28;20500;-73
2023/03/30 06:38:51;;;;;;;12.53;4.40;;;;;;;10.11;100.00;100384.84;5264818;28;20117;-72
2023/03/30 06:41:23;;;;;;;14.67;5.60;;;;;;;10.11;100.00;100388.31;5264885;28;20033;-73
2023/03/30 06:43:54;;;;;;;11.33;4.77;;;;;;;10.12;100.00;100381.34;5265191;28;20075;-72
2023/03/30 06:46:26;;;;;;;12.27;4.93;;;;;;;10.12;100.00;100397.84;5264510;28;20037;-72
2023/03/30 06:48:57;;;;;;;15.40;4.50;;;;;;;10.07;100.00;100393.59;5265284;28;20029;-73
2023/03/30 06:51:28;;;;;;;10.97;4.00;;;;;;;10.06;100.00;100392.72;5264780;28;20380;-73
2023/03/30 06:54:00;;;;;;;14.53;4.07;;;;;;;10.04;100.00;100384.94;5264839;28;20037;-73
2023/03/30 06:56:32;;;;;;;10.20;3.33;;;;;;;10.10;100.00;100396.16;5264510;28;20041;-73
2023/03/30 06:59:04;;;;;;;11.57;3.63;;;;;;;10.19;100.00;100381.22;5264798;28;20430;-72
2023/03/30 07:01:35;;;;;;;12.35;3.75;;;;;;;10.23;100.00;100393.28;5264985;28;20025;-72
2023/03/30 07:04:08;;;;;;;11.70;4.37;;;;;;;10.34;100.00;100384.47;5264537;28;20486;-73
2023/03/30 07:06:39;;;;;;;11.35;3.35;;;;;;;10.38;100.00;100397.44;5264781;28;20041;-73
2023/03/30 07:09:11;;;;;;;11.00;3.73;;;;;;;10.41;100.00;100396.50;5264495;28;20059;-73
2023/03/30 07:11:43;;;;;;;9.35;3.33;;;;;;;10.41;100.00;100404.31;5264148;28;20513;-72
2023/03/30 07:14:14;;;;;;;7.03;3.17;;;;;;;10.44;100.00;100393.84;5264501;28;20037;-72
2023/03/30 07:16:47;;;;;;;14.27;5.33;;;;;;;10.47;100.00;100406.81;5246928;28;20053;-73
2023/03/30 07:19:18;;;;;;;15.90;3.50;;;;;;;10.55;100.00;100407.53;5264378;28;20082;-72
2023/03/30 07:21:50;;;;;;;9.83;3.27;;;;;;;10.61;100.00;100397.84;5264680;28;20029;-73
2023/03/30 07:24:21;;;;;;;9.43;3.80;;;;;;;10.74;100.00;100400.22;5264105;28;20040;-73
2023/03/30 07:26:53;;;;;;;9.47;3.43;;;;;;;10.93;100.00;100416.34;5265033;28;20045;-73
2023/03/30 07:29:25;;;;;;;12.27;3.40;;;;;;;11.25;100.00;100404.41;5263740;28;20033;-73
2023/03/30 07:31:57;;;;;;;10.38;3.28;;;;;;;11.42;100.00;100414.44;5263930;28;20056;-72
2023/03/30 07:34:28;;;;;;;8.03;2.87;;;;;;;11.61;100.00;100404.44;5264422;28;20060;-72
2023/03/30 07:37:00;;;;;;;11.80;4.10;;;;;;;11.85;100.00;100412.63;5263971;28;20472;-73
2023/03/30 07:39:32;;;;;;;11.97;4.13;;;;;;;11.94;100.00;100416.78;5229781;28;20025;-73
2023/03/30 07:42:04;;;;;;;18.70;4.45;;;;;;;11.96;100.00;100409.75;5245570;28;20025;-73
2023/03/30 07:44:35;;;;;;;8.73;3.73;;;;;;;12.03;100.00;100430.47;5263644;28;20055;-73
2023/03/30 07:47:07;;;;;;;12.50;3.80;;;;;;;12.09;100.00;100432.09;5263817;28;20118;-73
2023/03/30 07:49:38;;;;;;;12.47;3.93;;;;;;;12.17;98.35;100437.09;5263639;28;20033;-73
2023/03/30 07:52:10;;;;;;;12.10;3.93;;;;;;;12.32;98.19;100451.56;5263677;28;20033;-73
2023/03/30 07:54:43;;;;;;;13.47;4.17;;;;;;;12.36;97.07;100442.72;5263176;28;20116;-74
2023/03/30 07:57:14;;;;;;;12.73;4.10;;;;;;;12.50;97.45;100437.16;5263546;28;20435;-73
2023/03/30 07:59:46;;;;;;;7.90;2.93;;;;;;;12.57;94.80;100439.56;5263190;28;20033;-73
2023/03/30 08:02:17;;;;;;;12.53;4.33;;;;;;;12.54;93.15;100449.22;5262221;28;20372;-72
2023/03/30 08:04:49;;;;;;;13.60;4.17;;;;;;;12.65;93.57;100454.19;5263173;28;20444;-72
2023/03/30 08:07:20;;;;;;;12.27;3.53;;;;;;;12.72;93.68;100451.38;5263728;28;20068;-74
2023/03/30 08:09:51;;;;;;;11.60;3.13;;;;;;;12.89;93.42;100455.28;5263472;28;20029;-73
2023/03/30 08:12:23;;;;;;;12.23;3.60;;;;;;;12.96;90.97;100459.44;5261857;28;20037;-73
2023/03/30 08:14:54;;;;;;;8.53;2.97;;;;;;;12.91;90.46;100482.25;5244617;28;20056;-73
2023/03/30 08:17:26;;;;;;;14.27;3.07;;;;;;;12.88;89.51;100466.63;5263604;28;20032;-73
2023/03/30 08:19:57;;;;;;;12.63;3.30;;;;;;;12.95;88.84;100465.56;5263712;28;20099;-72
2023/03/30 08:22:29;;;;;;;14.10;4.03;;;;;;;12.98;87.71;100468.09;5263025;28;20551;-73
2023/03/30 08:25:00;;;;;;;20.77;5.93;;;;;;;12.81;86.64;100479.00;5261796;28;20036;-73
2023/03/30 08:27:32;;;;;;;16.30;4.20;;;;;;;12.67;86.51;100471.56;5261720;28;20480;-72
2023/03/30 08:30:04;;;;;;;14.33;4.50;;;;;;;12.67;86.57;100475.91;5263503;28;20033;-73
2023/03/30 08:32:35;;;;;;;17.00;4.35;;;;;;;12.90;85.41;100477.94;5262707;28;20047;-72
2023/03/30 08:35:07;;;;;;;15.33;3.77;;;;;;;12.90;85.98;100470.06;5244348;28;20037;-72
2023/03/30 08:37:38;;;;;;;14.70;4.20;;;;;;;12.89;84.19;100484.91;5262247;28;20110;-73
2023/03/30 08:40:11;;;;;;;14.43;3.67;;;;;;;12.98;83.93;100464.63;5262284;28;20037;-72
2023/03/30 08:42:55;;;;;;;12.95;3.70;;;;;;;13.00;83.01;100475.91;5262487;28;20379;-72
2023/03/30 08:45:35;;;;;;;13.38;4.22;;;;;;;13.14;82.33;100472.00;5262131;28;20111;-73
2023/03/30 08:48:15;;;;;;;17.15;3.85;;;;;;;13.19;81.28;100476.25;5262486;28;20451;-72
2023/03/30 08:51:04;;;;;;;15.10;4.03;;;;;;;13.24;80.95;100482.22;5262577;28;20113;-72
2023/03/30 08:53:36;;;;;;;20.17;5.63;;;;;;;13.17;78.30;100488.50;5260953;28;20029;-73
2023/03/30 08:56:18;;;;;;;19.57;5.60;;;;;;;13.21;78.83;100485.75;5262383;28;20495;-73
2023/03/30 08:58:52;;;;;;;18.10;4.57;;;;;;;13.52;78.00;100476.19;5262023;28;20104;-73
2023/03/30 09:01:33;;;;;;;17.70;4.57;;;;;;;13.79;76.50;100479.75;5260785;28;20025;-72
2023/03/30 09:04:36;;;;;;;12.10;4.03;;;;;;;13.91;74.86;100483.72;5262413;28;20029;-73
2023/03/30 09:07:15;;;;;;;;;;;;;;;14.33;74.80;100472.75;5262798;28;20108;-73
2023/03/30 09:09:50;;;;;;;14.93;4.95;;;;;;;14.48;73.01;100469.63;5261878;28;19999;-73
2023/03/30 09:12:40;;;;;;;13.25;4.57;;;;;;;14.49;72.82;100486.22;5261856;28;20055;-73
2023/03/30 09:15:17;;;;;;;15.95;4.43;;;;;;;14.09;70.40;100496.25;5261649;28;20048;-74
2023/03/30 09:18:07;;;;;;;12.95;3.72;;;;;;;13.78;71.41;100507.69;5243962;28;20044;-73
2023/03/30 09:20:39;;;;;;;15.07;4.80;;;;;;;13.52;71.94;100508.47;5262158;28;20116;-73
2023/03/30 09:23:14;;;;;;;15.93;4.10;;;;;;;13.31;72.11;100520.38;5261831;28;20040;-73
2023/03/30 09:26:01;;;;;;;18.45;5.55;;;;;;;13.14;73.35;100510.41;5262293;28;20032;-73
2023/03/30 09:28:57;;;;;;;15.48;5.55;;;;;;;13.19;73.36;100529.44;5266520;28;20025;-73
2023/03/30 09:31:50;;;;;;;15.40;4.55;;;;;;;13.51;73.30;100512.00;5266333;28;20037;-73
2023/03/30 09:35:14;;;;;;;12.63;4.38;;;;;;;14.16;70.25;100520.50;5265949;28;20036;-73
2023/03/30 09:37:46;;;;;;;23.73;5.15;;;;;;;14.69;68.41;100524.94;5261815;28;20128;-73
2023/03/30 09:40:39;;;;;;;19.50;5.80;;;;;;;14.82;66.40;100520.13;5248356;28;20513;-73
2023/03/30 09:43:36;;;;;;;;;;;;;;;14.54;65.51;100536.78;5266118;28;20021;-73
2023/03/30 09:46:08;;;;;;;14.68;5.10;;;;;;;14.91;66.45;100531.16;5263445;28;19987;-72
2023/03/30 09:48:45;;;;;;;17.65;5.82;;;;;;;14.97;65.43;100509.06;5265793;28;20420;-72
2023/03/30 09:51:24;;;;;;;17.38;5.03;;;;;;;15.25;65.48;100516.81;5264090;28;20025;-72
2023/03/30 09:54:02;;;;;;;16.23;4.47;;;;;;;15.56;65.35;100522.72;5266492;28;20029;-72
2023/03/30 09:56:45;;;;;;;15.40;5.55;;;;;;;14.80;65.56;100527.19;5265831;28;20032;-72
2023/03/30 09:59:20;;;;;;;;;;;;;;;14.95;65.00;100531.91;5265901;28;20029;-71
2023/03/30 10:01:51;;;;;;;21.10;5.38;;;;;;;14.77;66.22;100547.34;5264959;28;19978;-71
2023/03/30 10:04:23;;;;;;;16.60;5.80;;;;;;;14.69;66.08;100525.78;5263364;28;20119;-72
2023/03/30 10:06:54;;;;;;;20.27;5.40;;;;;;;14.23;67.22;100545.59;5247398;28;20037;-71
2023/03/30 10:09:25;;;;;;;15.20;4.43;;;;;;;14.12;66.38;100564.31;5247312;28;20040;-71
2023/03/30 10:11:57;;;;;;;19.47;5.13;;;;;;;14.27;66.45;100521.03;5265201;28;20120;-73
2023/03/30 10:14:32;;;;;;;19.70;5.20;;;;;;;14.46;66.50;100557.13;5265197;28;20032;-72
2023/03/30 10:17:05;;;;;;;21.20;6.53;;;;;;;14.63;66.59;100541.72;5265502;28;20057;-72
2023/03/30 10:19:40;;;;;;;;;;;;;;;14.67;66.93;100547.75;5265681;28;20591;-72
2023/03/30 10:22:16;;;;;;;17.35;4.82;;;;;;;15.10;64.78;100551.50;5265216;28;19917;-71
2023/03/30 10:24:54;;;;;;;21.00;6.43;;;;;;;15.32;65.04;100531.41;5264691;28;20029;-72
2023/03/30 10:27:32;;;;;;;24.25;5.78;;;;;;;15.48;63.98;100546.63;5264767;28;20032;-72
2023/03/30 10:30:17;;;;;;;26.67;5.13;;;;;;;15.05;64.09;100549.06;5265201;28;20025;-71
2023/03/30 10:32:48;;;;;;;19.60;6.05;;;;;;;15.27;65.24;100543.88;5264744;28;20111;-72
2023/03/30 10:35:26;;;;;;;16.03;4.77;;;;;;;15.27;61.91;100548.28;5264887;28;20120;-72
2023/03/30 10:38:01;;;;;;;12.25;4.50;;;;;;;14.83;62.75;100538.44;5264078;28;20032;-71
2023/03/30 10:40:38;;;;;;;15.32;4.80;;;;;;;14.77;63.49;100554.38;5264545;28;20064;-72
2023/03/30 10:43:37;;;;;;;18.63;6.15;;;;;;;15.54;62.27;100556.06;5265118;28;20033;-71
2023/03/30 10:46:21;;;;;;;15.23;4.47;;;;;;;15.47;61.21;100560.66;5263137;28;20041;-72
2023/03/30 10:48:59;;;;;;;15.90;4.50;;;;;;;15.21;60.91;100548.50;5264341;28;20104;-72
2023/03/30 10:51:30;;;;;;;15.88;4.95;;;;;;;15.09;62.00;100547.16;5246784;28;20029;-72
2023/03/30 10:54:01;;;;;;;17.73;5.70;;;;;;;15.65;60.21;100559.16;5264474;28;20025;-71
2023/03/30 10:56:36;;;;;;;14.50;3.87;;;;;;;16.26;57.75;100544.56;5264109;28;20421;-72
2023/03/30 10:59:23;;;;;;;16.85;4.95;;;;;;;16.01;59.19;100559.53;5264295;28;20025;-72
2023/03/30 11:02:32;;;;;;;17.65;4.68;;;;;;;16.39;57.70;100565.03;5246162;28;20083;-71
2023/03/30 11:05:13;;;;;;;17.95;6.20;;;;;;;15.79;59.28;100554.28;5264160;28;20053;-71
2023/03/30 11:07:56;;;;;;;18.52;5.07;;;;;;;15.57;59.53;100542.78;5246496;28;20515;-71
2023/03/30 11:10:35;;;;;;;16.90;5.05;;;;;;;14.93;62.80;100546.84;5245889;28;20028;-72
2023/03/30 11:13:14;;;;;;;12.88;4.05;;;;;;;15.54;61.34;100541.16;5264579;28;20166;-71
2023/03/30 11:15:53;;;;;;;14.80;4.82;;;;;;;16.08;59.83;100551.41;5263698;28;20037;-71
2023/03/30 11:18:31;;;;;;;16.70;4.95;;;;;;;16.25;59.16;100543.72;5264759;28;20415;-71
2023/03/30 11:21:21;;;;;;;12.90;4.25;;;;;;;16.57;58.15;100552.06;5263822;28;20025;-71
2023/03/30 11:24:03;;;;;;;16.52;4.43;;;;;;;15.81;59.00;100546.28;5263980;28;20036;-70
2023/03/30 11:26:34;;;;;;;17.13;5.30;;;;;;;15.35;60.02;100561.97;5264255;28;20079;-71
2023/03/30 11:29:21;;;;;;;19.73;6.03;;;;;;;14.81;62.40;100558.63;5263635;28;20071;-71
2023/03/30 11:32:19;;;;;;;16.35;5.53;;;;;;;14.89;63.44;100548.72;5263911;28;20063;-71
2023/03/30 11:35:26;;;;;;;15.15;5.32;;;;;;;14.73;63.88;100542.25;5263862;28;20036;-71
2023/03/30 11:38:05;;;;;;;14.40;5.18;;;;;;;14.54;64.96;100549.88;5263274;28;20424;-70
2023/03/30 11:41:01;;;;;;;16.63;5.10;;;;;;;14.65;65.30;100532.06;5263818;28;20480;-71
2023/03/30 11:43:32;;;;;;;18.30;5.43;;;;;;;14.61;66.01;100561.91;5251958;28;20079;-71
2023/03/30 11:46:26;;;;;;;18.80;4.87;;;;;;;14.61;64.62;100542.69;5263490;28;20056;-71
2023/03/30 11:49:15;;;;;;;18.60;5.15;;;;;;;14.69;64.84;100553.78;5262608;28;20453;-71
2023/03/30 11:51:48;;;;;;;13.60;3.97;;;;;;;15.00;64.29;100550.09;5263467;28;20032;-71
2023/03/30 11:54:45;;;;;;;15.20;4.32;;;;;;;14.71;65.84;100559.84;5263177;28;20048;-70
2023/03/30 11:57:26;;;;;;;15.13;4.47;;;;;;;15.40;65.34;100560.03;5263128;28;20396;-70
2023/03/30 12:00:25;;;;;;;15.68;4.60;;;;;;;15.30;64.17;100554.25;5245338;28;20066;-71